Chiniot Weather



Chiniot's Current Weather

Temprature 38.58o broken clouds

broken clouds

Rain: 0 %

Min Temprature38.58o
Max Temprature38.58o
Humidity16
Wind Speed0.91 m/h
Sun Rise05:16:36
Sun Set18:52:34
Current Time: 08-May-2021 14:27:24
Lat/Lon: 31.72, 72.9789




Chiniot's Geo Location



Chiniot's Weather Forecast

Time Overall Temp Min Temp Max Temp Humidity Wind Speed Rain
08-May-2021 (Sat)
17:00:00 broken clouds 38.560 38.530 38.560 15 2.55 m/h 0 %
20:00:00 scattered clouds 34.200 32.010 34.200 24 6.91 m/h 0 %
23:00:00 scattered clouds 28.770 28.770 28.770 32 2.64 m/h 0 %
09-May-2021 (Sun)
02:00:00 clear sky 28.300 28.300 28.300 31 0.72 m/h 0 %
05:00:00 scattered clouds 26.470 26.470 26.470 39 3.31 m/h 0 %
08:00:00 overcast clouds 31.920 31.920 31.920 27 3.4 m/h 0 %
11:00:00 broken clouds 38.800 38.800 38.800 15 3.79 m/h 0 %
14:00:00 scattered clouds 41.880 41.880 41.880 10 1.76 m/h 0 %
17:00:00 scattered clouds 41.720 41.720 41.720 9 3.26 m/h 0 %
20:00:00 broken clouds 28.500 28.500 28.500 34 9.39 m/h 0 %
23:00:00 scattered clouds 27.620 27.620 27.620 38 3.45 m/h 0 %
10-May-2021 (Mon)
02:00:00 scattered clouds 27.060 27.060 27.060 37 3.41 m/h 0 %
05:00:00 few clouds 25.910 25.910 25.910 39 3.32 m/h 0 %
08:00:00 light rain 30.940 30.940 30.940 30 4.36 m/h 73 %
11:00:00 broken clouds 37.890 37.890 37.890 17 4.4 m/h 0 %
14:00:00 overcast clouds 41.030 41.030 41.030 13 1.87 m/h 0 %
17:00:00 broken clouds 40.930 40.930 40.930 12 2.63 m/h 0 %
20:00:00 few clouds 34.640 34.640 34.640 18 2.75 m/h 0 %
23:00:00 few clouds 30.380 30.380 30.380 29 5.91 m/h 0 %
11-May-2021 (Tue)
02:00:00 broken clouds 27.820 27.820 27.820 36 0.72 m/h 0 %
05:00:00 scattered clouds 26.680 26.680 26.680 38 1.37 m/h 0 %
08:00:00 clear sky 32.880 32.880 32.880 26 1.13 m/h 0 %
11:00:00 clear sky 38.570 38.570 38.570 16 2.77 m/h 0 %
14:00:00 clear sky 41.790 41.790 41.790 12 3.34 m/h 0 %
17:00:00 clear sky 42.160 42.160 42.160 10 2.04 m/h 0 %
20:00:00 broken clouds 32.480 32.480 32.480 25 8.58 m/h 0 %
23:00:00 light rain 31.500 31.500 31.500 27 5.01 m/h 215 %
12-May-2021 (Wed)
02:00:00 light rain 27.550 27.550 27.550 42 4.06 m/h 21 %
05:00:00 light rain 26.450 26.450 26.450 47 4.67 m/h 18 %
08:00:00 overcast clouds 28.950 28.950 28.950 39 1.21 m/h 0 %
11:00:00 overcast clouds 35.270 35.270 35.270 24 3.76 m/h 0 %
14:00:00 overcast clouds 36.500 36.500 36.500 21 4.5 m/h 0 %
17:00:00 light rain 30.160 30.160 30.160 35 4.51 m/h 58 %
20:00:00 light rain 26.290 26.290 26.290 50 3.32 m/h 108 %
23:00:00 light rain 25.860 25.860 25.860 54 3.51 m/h 119 %
13-May-2021 (Thu)
02:00:00 overcast clouds 25.090 25.090 25.090 56 3.75 m/h 0 %
05:00:00 overcast clouds 24.330 24.330 24.330 57 2.28 m/h 0 %
08:00:00 clear sky 27.800 27.800 27.800 44 5.36 m/h 0 %
11:00:00 clear sky 32.900 32.900 32.900 32 4.01 m/h 0 %
14:00:00 few clouds 36.030 36.030 36.030 25 3.41 m/h 0 %


Chiniot's Tourist Spots

Historical Places in Chiniot

Famous Cities (60)